This is the latest recevied weather packets stored in our database for station/object N4OGP-WX. If no packets are shown the sender has not sent any weather packets the latest 10 day(s).
| Time | Temp. | Humidity | Pressure | Rain* | Wind** | Luminosity | Snow |
|---|---|---|---|---|---|---|---|
| 1777533590 | 23.89° C | 42% | 1020.4 hPa | 0 mm | - | - | - |
| 1777533529 | 23.89° C | 42% | 1020.4 hPa | 0 mm | - | - | - |
| 1777533470 | 21.11° C | 90% | 1007.1 hPa | 0 mm | - | - | - |
| 1777533410 | 23.89° C | 42% | 1020.4 hPa | 0 mm | - | - | - |
| 1777533320 | 23.89° C | 42% | 1020.4 hPa | 0 mm | - | - | - |
| 1777533260 | 23.89° C | 42% | 1020.4 hPa | 0 mm | - | - | - |
| 1777533170 | 23.89° C | 42% | 1020.4 hPa | 0 mm | - | - | - |
| 1777533079 | 21.11° C | 90% | 1007.6 hPa | 0 mm | - | - | - |
| 1777533020 | 23.89° C | 42% | 1020.4 hPa | 0 mm | - | - | - |
| 1777532960 | 21.11° C | 90% | 1007.7 hPa | 0 mm | - | - | - |
| 1777532900 | 23.89° C | 42% | 1020.4 hPa | 0 mm | - | - | - |
| 1777532810 | 21.11° C | 89% | 1007.8 hPa | 0 mm | - | - | - |
| 1777532720 | 23.89° C | 42% | 1020.4 hPa | 0 mm | - | - | - |
| 1777532660 | 21.11° C | 90% | 1007.8 hPa | 0 mm | - | - | - |
| 1777532599 | 23.89° C | 42% | 1020.4 hPa | 0 mm | - | - | - |
| 1777532540 | 23.89° C | 42% | 1020.4 hPa | 0 mm | - | - | - |
| 1777532479 | 23.89° C | 42% | 1020.4 hPa | 0 mm | - | - | - |
| 1777532390 | 21.11° C | 89% | 1007.6 hPa | 0 mm | - | - | - |
| 1777532299 | 23.89° C | 42% | 1020.4 hPa | 0 mm | - | - | - |
| 1777532210 | 21.11° C | 89% | 1007.5 hPa | 0 mm | - | - | - |
| 1777532149 | 21.11° C | 89% | 1007.5 hPa | 0 mm | - | - | - |
| 1777532060 | 21.11° C | 90% | 1007.5 hPa | 0 mm | - | - | - |
| 1777532000 | 23.89° C | 42% | 1020.4 hPa | 0 mm | - | - | - |
| 1777531940 | 21.11° C | 90% | 1007.6 hPa | 0 mm | - | - | - |
| 1777531880 | 21.11° C | 90% | 1007.6 hPa | 0 mm | - | - | - |
* Rain latest hour (hover to see other rain measurements)
** Current wind speed in m/s (hover to see current wind gust speed)